Aviation Digital Data Service (ADDS)

Output produced by METARs form (1816 UTC 19 April 2019)
found at http://www.aviationweather.gov/metar/data/
 
Forecast for: ZUGY (GUIYANG , CN)
Text: TAF ZUGY 191411Z 1918/2018 18004MPS 5000 BR SCT030 TX29/2007Z TN18/1922Z
Forecast period: 1800 UTC 19 April 2019 to 1800 UTC 20 April 2019
Forecast type: FROM: standard forecast or significant change
Winds: from the S (180 degrees) at 9 MPH (8 knots; 4.1 m/s)
Visibility: 3 miles (5 km)
Ceiling: at least 12,000 feet AGL
Clouds: scattered clouds at 3000 feet AGL
Weather: BR  (mist)